Time;durP1;ratioP1;P1;durP2;ratioP2;P2;SDS_P1;SDS_P2;PMS_P1;PMS_P2;Temp;Humidity;BMP_temperature;BMP_pressure;BME280_temperature;BME280_humidity;BME280_pressure;Samples;Min_cycle;Max_cycle;Signal;HPM_P1;HPM_P2
2023/06/20 00:01:54;;;;;;;0.10;0.10;;;17.30;99.90;;;;;;5065320;28;20578;-84
2023/06/20 00:04:20;;;;;;;0.15;0.15;;;17.20;99.90;;;;;;5060837;28;20095;-74
2023/06/20 00:06:46;;;;;;;0.10;0.10;;;17.10;99.90;;;;;;5063019;28;20024;-76
2023/06/20 00:09:12;;;;;;;4.28;2.17;;;17.00;99.90;;;;;;5049954;28;20387;-75
2023/06/20 00:11:37;;;;;;;0.20;0.20;;;16.90;99.90;;;;;;5044711;28;20243;-73
2023/06/20 00:14:03;;;;;;;0.10;0.10;;;16.80;99.90;;;;;;5062841;28;20025;-73
2023/06/20 00:16:29;;;;;;;0.20;0.20;;;16.70;99.90;;;;;;5061713;28;20025;-78
2023/06/20 00:18:55;;;;;;;0.10;0.10;;;16.70;99.90;;;;;;5062019;28;20465;-84
2023/06/20 00:21:25;;;;;;;0.10;0.10;;;16.70;99.90;;;;;;5062221;28;20078;-80
2023/06/20 00:23:54;;;;;;;0.20;0.20;;;16.60;99.90;;;;;;5062300;28;20020;-77
2023/06/20 00:26:21;;;;;;;0.20;0.20;;;16.50;99.90;;;;;;5043758;28;20115;-83
2023/06/20 00:28:50;;;;;;;0.20;0.20;;;16.70;99.90;;;;;;5062328;28;20483;-85
2023/06/20 00:31:16;;;;;;;0.20;0.20;;;16.70;99.90;;;;;;5062230;28;20032;-82
2023/06/20 00:33:42;;;;;;;0.10;0.10;;;16.60;99.90;;;;;;5062389;28;20304;-78
2023/06/20 00:36:08;;;;;;;0.10;0.10;;;16.50;99.90;;;;;;5061153;28;20029;-79
2023/06/20 00:38:34;;;;;;;0.15;0.15;;;16.60;99.90;;;;;;5062123;28;20514;-85
2023/06/20 00:41:00;;;;;;;0.10;0.10;;;16.80;99.90;;;;;;5061951;28;20024;-74
2023/06/20 00:43:26;;;;;;;0.20;0.20;;;16.90;99.90;;;;;;5061711;28;20387;-80
2023/06/20 00:45:52;;;;;;;0.10;0.10;;;16.80;99.90;;;;;;5061358;28;20021;-80
2023/06/20 00:48:18;;;;;;;0.30;0.30;;;16.70;99.90;;;;;;5061194;28;20325;-77
2023/06/20 00:50:44;;;;;;;0.10;0.10;;;16.70;99.90;;;;;;5061382;28;20221;-83
2023/06/20 00:53:10;;;;;;;0.10;0.10;;;;;;;;;;5062192;28;20024;-91
2023/06/20 00:55:37;;;;;;;0.10;0.10;;;16.60;99.90;;;;;;5060541;28;20033;-78
2023/06/20 00:58:04;;;;;;;0.20;0.20;;;16.50;99.90;;;;;;5060464;28;20329;-81
2023/06/20 01:00:32;;;;;;;0.20;0.20;;;16.50;99.90;;;;;;5060618;28;20017;-80
2023/06/20 01:03:07;;;;;;;0.10;0.10;;;16.50;99.90;;;;;;5059996;28;20044;-77
2023/06/20 01:05:34;;;;;;;0.20;0.20;;;16.40;99.90;;;;;;5059999;28;20475;-73
2023/06/20 01:08:26;;;;;;;0.30;0.30;;;16.40;99.90;;;;;;5060584;28;20266;-75
2023/06/20 01:11:20;;;;;;;0.28;0.28;;;16.40;99.90;;;;;;5061185;28;20017;-84
2023/06/20 01:14:04;;;;;;;;;;;16.40;99.90;;;;;;5043123;28;20124;-79
2023/06/20 01:16:42;;;;;;;0.30;0.30;;;16.40;99.90;;;;;;5060499;28;19919;-78
2023/06/20 01:19:41;;;;;;;2.30;2.20;;;15.20;99.90;;;;;;5060516;28;20325;-76
2023/06/20 01:22:12;;;;;;;0.20;0.20;;;16.30;99.90;;;;;;5060954;28;20635;-79
2023/06/20 01:24:43;;;;;;;0.98;0.98;;;16.10;99.90;;;;;;5060606;28;20325;-80
2023/06/20 01:27:15;;;;;;;0.90;0.90;;;16.40;99.90;;;;;;5060913;28;20266;-88
2023/06/20 01:30:01;;;;;;;0.20;0.20;;;16.30;99.90;;;;;;5061530;28;20252;-74
2023/06/20 01:32:28;;;;;;;0.17;0.17;;;16.40;99.90;;;;;;5061664;28;20187;-83
2023/06/20 01:35:04;;;;;;;0.57;0.57;;;16.00;99.90;;;;;;5060413;28;20536;-78
2023/06/20 01:37:35;;;;;;;0.20;0.20;;;16.30;99.90;;;;;;5061005;28;20305;-73
2023/06/20 01:40:05;;;;;;;0.10;0.10;;;16.80;99.90;;;;;;5061472;28;20020;-81
2023/06/20 01:42:33;;;;;;;0.10;0.10;;;16.80;99.90;;;;;;5061335;28;20056;-87
2023/06/20 01:45:02;;;;;;;0.50;0.50;;;16.80;99.90;;;;;;5062107;28;20044;-77
2023/06/20 01:47:30;;;;;;;0.10;0.10;;;17.20;99.90;;;;;;5061653;28;20016;-78
2023/06/20 01:50:01;;;;;;;0.20;0.20;;;17.10;99.90;;;;;;5044519;28;20332;-80
2023/06/20 01:52:29;;;;;;;0.20;0.20;;;17.60;99.90;;;;;;5062197;28;20366;-83
2023/06/20 01:54:57;;;;;;;2.85;2.60;;;17.40;99.90;;;;;;5044211;28;20024;-81
2023/06/20 01:57:26;;;;;;;0.10;0.10;;;17.60;99.90;;;;;;5044295;28;20444;-84
2023/06/20 01:59:54;;;;;;;0.38;0.38;;;17.70;99.90;;;;;;5060701;28;20657;-76
2023/06/20 02:02:20;;;;;;;0.20;0.20;;;18.00;99.90;;;;;;5040872;28;20048;-77
2023/06/20 02:04:48;;;;;;;0.10;0.10;;;17.30;99.90;;;;;;5059265;28;20229;-77
2023/06/20 02:07:15;;;;;;;0.10;0.10;;;17.30;99.90;;;;;;5041584;28;20214;-77
2023/06/20 02:09:44;;;;;;;0.25;0.25;;;21.30;99.90;;;;;;5059626;28;20487;-75
2023/06/20 02:12:11;;;;;;;0.20;0.20;;;17.70;99.90;;;;;;5041556;28;20036;-75
2023/06/20 02:14:38;;;;;;;0.20;0.20;;;15.60;99.90;;;;;;5059807;28;20692;-74
2023/06/20 02:17:05;;;;;;;0.10;0.10;;;18.10;99.90;;;;;;5059695;28;20526;-75
2023/06/20 02:19:31;;;;;;;0.20;0.20;;;19.00;99.90;;;;;;5060031;28;20029;-81
2023/06/20 02:21:58;;;;;;;0.10;0.10;;;17.90;99.90;;;;;;5059973;28;20098;-76
2023/06/20 02:24:29;;;;;;;0.20;0.20;;;18.40;99.90;;;;;;5059470;28;20017;-76
2023/06/20 02:26:58;;;;;;;0.20;0.20;;;18.30;99.90;;;;;;5060177;28;20539;-80
2023/06/20 02:29:27;;;;;;;0.30;0.30;;;18.50;99.90;;;;;;5059365;28;20021;-76
2023/06/20 02:31:56;;;;;;;0.13;0.13;;;18.50;99.90;;;;;;5060353;28;20051;-78
2023/06/20 02:34:26;;;;;;;0.55;0.50;;;18.30;99.90;;;;;;5061414;28;20641;-81
2023/06/20 02:36:55;;;;;;;0.22;0.22;;;18.00;99.90;;;;;;5062178;28;20024;-83
2023/06/20 02:39:23;;;;;;;0.25;0.25;;;17.60;99.90;;;;;;5062746;28;20547;-81
2023/06/20 02:41:49;;;;;;;0.20;0.20;;;17.00;99.90;;;;;;5062219;28;20301;-78
2023/06/20 02:44:15;;;;;;;0.20;0.20;;;16.70;99.90;;;;;;5060898;28;20060;-77
2023/06/20 02:47:02;;;;;;;0.20;0.20;;;16.40;99.90;;;;;;5059909;28;20025;-76
2023/06/20 02:49:30;;;;;;;0.20;0.20;;;16.40;99.90;;;;;;5061369;28;20351;-86
2023/06/20 02:52:21;;;;;;;0.10;0.10;;;16.20;99.90;;;;;;5059893;28;20051;-74
2023/06/20 02:55:11;;;;;;;0.10;0.10;;;16.10;99.90;;;;;;5059811;28;20024;-85
2023/06/20 02:57:43;;;;;;;0.38;0.38;;;16.50;99.90;;;;;;5059938;28;20032;-76
2023/06/20 03:00:11;;;;;;;0.10;0.10;;;17.20;99.90;;;;;;5059698;28;20021;-80
2023/06/20 03:03:09;;;;;;;0.20;0.20;;;17.30;99.90;;;;;;5060389;28;20304;-80
2023/06/20 03:05:40;;;;;;;0.17;0.17;;;17.00;99.90;;;;;;5052509;28;20553;-80
2023/06/20 03:08:07;;;;;;;3.92;3.60;;;17.00;99.90;;;;;;5061150;28;20023;-76
2023/06/20 03:10:35;;;;;;;0.57;0.57;;;17.20;99.90;;;;;;5043863;28;20024;-80
2023/06/20 03:13:03;;;;;;;0.20;0.20;;;17.60;99.90;;;;;;5061729;28;20028;-80
2023/06/20 03:15:29;;;;;;;0.73;0.73;;;16.60;99.90;;;;;;5061976;28;20052;-75
2023/06/20 03:17:55;;;;;;;0.20;0.20;;;16.30;99.90;;;;;;5061121;28;20241;-88
2023/06/20 03:20:21;;;;;;;0.35;0.35;;;;;;;;;;5061918;28;20434;-86
2023/06/20 03:22:47;;;;;;;3.58;3.30;;;16.20;99.90;;;;;;5043351;28;20374;-72
2023/06/20 03:25:12;;;;;;;0.10;0.10;;;16.40;99.90;;;;;;5059702;28;20242;-79
2023/06/20 03:27:38;;;;;;;0.10;0.10;;;;;;;;;;5059799;28;20144;-76
2023/06/20 03:30:05;;;;;;;0.10;0.10;;;16.00;99.90;;;;;;5061349;28;20521;-79
2023/06/20 03:32:36;;;;;;;0.10;0.10;;;15.90;99.90;;;;;;5060485;28;20438;-83
2023/06/20 03:35:05;;;;;;;0.20;0.20;;;15.80;99.90;;;;;;5042558;28;20345;-89
2023/06/20 03:37:31;;;;;;;0.20;0.20;;;15.90;99.90;;;;;;5060570;28;20043;-85
2023/06/20 03:39:57;;;;;;;2.97;2.75;;;16.60;99.90;;;;;;5061812;28;20471;-79
2023/06/20 03:42:23;;;;;;;0.63;0.63;;;16.50;99.90;;;;;;5045033;28;20044;-80
2023/06/20 03:44:48;;;;;;;0.30;0.30;;;16.70;99.90;;;;;;5045185;28;20041;-76
2023/06/20 03:47:14;;;;;;;0.20;0.20;;;16.60;99.90;;;;;;5063211;28;20025;-86
2023/06/20 03:49:41;;;;;;;0.10;0.10;;;15.40;99.90;;;;;;5064083;28;20031;-79
2023/06/20 03:52:07;;;;;;;0.65;0.65;;;16.50;99.90;;;;;;5063434;28;20028;-88
2023/06/20 03:54:34;;;;;;;0.20;0.20;;;16.70;99.90;;;;;;5063597;28;20066;-89
2023/06/20 03:57:01;;;;;;;0.20;0.20;;;16.20;99.90;;;;;;5064014;28;20024;-78
2023/06/20 03:59:27;;;;;;;1.20;1.20;;;16.20;99.90;;;;;;5063287;28;20043;-79
2023/06/20 04:01:52;;;;;;;0.10;0.10;;;16.60;99.90;;;;;;5044254;28;20329;-84
2023/06/20 04:04:19;;;;;;;0.30;0.30;;;16.70;99.90;;;;;;5064203;28;20337;-74
2023/06/20 04:06:49;;;;;;;0.20;0.20;;;16.60;99.90;;;;;;5062894;28;20043;-83
2023/06/20 04:09:25;;;;;;;0.20;0.20;;;17.10;99.90;;;;;;5044706;28;20099;-85
2023/06/20 04:11:51;;;;;;;0.20;0.20;;;16.90;99.90;;;;;;5044452;28;20128;-75
2023/06/20 04:14:17;;;;;;;0.20;0.20;;;15.10;99.90;;;;;;5062535;28;20107;-73
2023/06/20 04:16:44;;;;;;;0.20;0.20;;;17.10;99.90;;;;;;5062544;28;20374;-77
2023/06/20 04:19:10;;;;;;;0.20;0.20;;;17.30;99.90;;;;;;5045042;28;20119;-85
2023/06/20 04:21:35;;;;;;;0.17;0.17;;;17.70;99.90;;;;;;5062729;28;20043;-81
2023/06/20 04:24:01;;;;;;;0.20;0.20;;;17.20;99.90;;;;;;5063888;28;20024;-77
2023/06/20 04:26:29;;;;;;;0.10;0.10;;;17.20;99.90;;;;;;5070279;28;20039;-84
2023/06/20 04:28:56;;;;;;;0.20;0.20;;;17.90;99.90;;;;;;5074989;28;20080;-75
2023/06/20 04:31:21;;;;;;;0.65;0.65;;;18.20;99.90;;;;;;5070465;28;20059;-80
2023/06/20 04:33:47;;;;;;;0.10;0.10;;;17.50;99.90;;;;;;5072775;28;20012;-75
2023/06/20 04:36:13;;;;;;;0.52;0.52;;;18.20;99.90;;;;;;5068696;28;20690;-75
2023/06/20 04:38:43;;;;;;;0.10;0.10;;;16.60;99.90;;;;;;5064232;28;20059;-74
2023/06/20 04:41:12;;;;;;;0.20;0.20;;;17.60;99.90;;;;;;5064720;28;20029;-81
2023/06/20 04:43:38;;;;;;;0.10;0.10;;;17.90;99.90;;;;;;5044741;28;20028;-74
2023/06/20 04:46:04;;;;;;;0.40;0.40;;;16.80;99.90;;;;;;5062394;28;20438;-87
2023/06/20 04:48:35;;;;;;;0.28;0.28;;;18.40;99.90;;;;;;5062978;28;20321;-73
2023/06/20 04:51:01;;;;;;;0.10;0.10;;;18.60;99.90;;;;;;5061717;28;20219;-76
2023/06/20 04:53:27;;;;;;;0.20;0.20;;;18.90;99.90;;;;;;5060730;28;20059;-75
2023/06/20 04:55:54;;;;;;;0.50;0.50;;;19.10;99.90;;;;;;5043318;28;20107;-76
2023/06/20 04:58:19;;;;;;;0.30;0.30;;;19.10;99.90;;;;;;5043421;28;20032;-80
2023/06/20 05:00:45;;;;;;;0.30;0.30;;;19.10;99.90;;;;;;5061038;28;20289;-80
2023/06/20 05:03:11;;;;;;;0.30;0.30;;;;;;;;;;5060704;28;20300;-73
2023/06/20 05:05:39;;;;;;;0.63;0.63;;;18.80;99.90;;;;;;5060876;28;20291;-78
2023/06/20 05:08:05;;;;;;;0.20;0.20;;;19.10;99.90;;;;;;5060931;28;20035;-77
2023/06/20 05:10:31;;;;;;;0.40;0.40;;;18.70;99.90;;;;;;5061452;28;20020;-73
2023/06/20 05:12:57;;;;;;;0.20;0.20;;;18.90;99.90;;;;;;5062369;28;20098;-83
2023/06/20 05:15:25;;;;;;;0.20;0.20;;;18.60;99.90;;;;;;5064048;28;20116;-73
2023/06/20 05:17:54;;;;;;;0.20;0.20;;;18.60;99.90;;;;;;5046068;28;20403;-77
2023/06/20 05:20:20;;;;;;;0.20;0.20;;;18.40;99.90;;;;;;5065125;28;20027;-81
2023/06/20 05:22:46;;;;;;;0.20;0.20;;;18.60;99.90;;;;;;5047161;28;20033;-80
2023/06/20 05:25:12;;;;;;;9.45;9.05;;;18.80;99.90;;;;;;5061581;28;20101;-83
2023/06/20 05:27:38;;;;;;;1.40;1.30;;;19.10;99.90;;;;;;5061134;28;20036;-81
2023/06/20 05:30:05;;;;;;;0.98;0.98;;;19.00;99.90;;;;;;5061319;28;20475;-83
2023/06/20 05:32:31;;;;;;;0.20;0.20;;;20.40;99.90;;;;;;5060556;28;20380;-75
2023/06/20 05:34:57;;;;;;;0.20;0.20;;;19.40;99.90;;;;;;5060062;28;20120;-81
2023/06/20 05:37:23;;;;;;;0.25;0.25;;;19.20;99.90;;;;;;5060372;28;20027;-81
2023/06/20 05:39:48;;;;;;;0.40;0.40;;;19.30;99.90;;;;;;5060883;28;20052;-78
2023/06/20 05:42:16;;;;;;;0.77;0.77;;;19.40;99.90;;;;;;5059985;28;20112;-76
2023/06/20 05:44:41;;;;;;;0.45;0.45;;;19.70;99.90;;;;;;5060531;28;20024;-74
2023/06/20 05:47:08;;;;;;;0.10;0.10;;;19.90;99.90;;;;;;5059960;28;20556;-87
2023/06/20 05:49:34;;;;;;;0.65;0.65;;;20.10;99.90;;;;;;5060948;28;20025;-89
2023/06/20 05:51:59;;;;;;;0.20;0.20;;;20.20;99.90;;;;;;5061052;28;20540;-86
2023/06/20 05:54:25;;;;;;;0.10;0.10;;;20.40;99.90;;;;;;5061079;28;20149;-76
2023/06/20 05:56:52;;;;;;;0.90;0.73;;;20.50;99.90;;;;;;5060343;28;20108;-83
2023/06/20 05:59:17;;;;;;;2.95;1.95;;;20.40;99.90;;;;;;5060381;28;20017;-77
2023/06/20 06:01:44;;;;;;;0.10;0.10;;;20.60;99.90;;;;;;5042953;28;20542;-80
2023/06/20 06:04:10;;;;;;;0.40;0.40;;;20.60;99.90;;;;;;5060132;28;20248;-78
2023/06/20 06:06:36;;;;;;;0.20;0.20;;;20.60;99.90;;;;;;5063113;28;20016;-76
2023/06/20 06:09:03;;;;;;;0.20;0.20;;;20.60;99.90;;;;;;5062631;28;20515;-79
2023/06/20 06:11:29;;;;;;;0.15;0.15;;;20.80;99.90;;;;;;5064098;28;20032;-80
2023/06/20 06:13:55;;;;;;;0.35;0.35;;;20.40;99.90;;;;;;5063196;28;20048;-74
2023/06/20 06:16:21;;;;;;;0.25;0.25;;;20.80;99.90;;;;;;5059344;28;20061;-84
2023/06/20 06:18:47;;;;;;;0.30;0.30;;;20.70;99.90;;;;;;5059404;28;20020;-75
2023/06/20 06:21:13;;;;;;;0.38;0.38;;;;;;;;;;5058646;28;20302;-76
2023/06/20 06:23:39;;;;;;;0.50;0.50;;;;;;;;;;5059065;28;20021;-82
2023/06/20 06:26:05;;;;;;;0.47;0.47;;;20.80;99.90;;;;;;5059146;28;20491;-74
2023/06/20 06:28:31;;;;;;;0.10;0.10;;;21.20;99.90;;;;;;5058208;28;20020;-77
2023/06/20 06:31:01;;;;;;;0.10;0.10;;;20.90;99.90;;;;;;5040549;28;20533;-86
2023/06/20 06:33:28;;;;;;;0.10;0.10;;;20.80;99.90;;;;;;5058383;28;20031;-79
2023/06/20 06:35:55;;;;;;;0.10;0.10;;;20.60;99.90;;;;;;5039396;28;20028;-76
2023/06/20 06:38:22;;;;;;;0.57;0.57;;;20.90;99.90;;;;;;5058652;28;20017;-78
2023/06/20 06:40:48;;;;;;;0.20;0.20;;;20.80;99.90;;;;;;5058503;28;20021;-78
2023/06/20 06:43:14;;;;;;;0.20;0.20;;;21.00;99.90;;;;;;5058015;28;20024;-75
2023/06/20 06:45:40;;;;;;;0.17;0.17;;;21.20;99.90;;;;;;5042553;28;20086;-83
2023/06/20 06:48:06;;;;;;;0.30;0.30;;;21.30;99.90;;;;;;5059625;28;20036;-75
2023/06/20 06:50:32;;;;;;;0.38;0.38;;;21.40;99.90;;;;;;5057522;28;20020;-75
2023/06/20 06:52:58;;;;;;;0.30;0.30;;;21.50;99.90;;;;;;5057621;28;20513;-75
2023/06/20 06:55:24;;;;;;;0.13;0.13;;;21.60;99.90;;;;;;5057788;28;20028;-77
2023/06/20 06:57:52;;;;;;;0.40;0.40;;;21.80;99.90;;;;;;5057594;28;20028;-75
2023/06/20 07:00:18;;;;;;;0.10;0.10;;;20.40;99.90;;;;;;5057685;28;20052;-75
2023/06/20 07:02:45;;;;;;;0.20;0.20;;;22.00;99.90;;;;;;5058494;28;20052;-74
2023/06/20 07:05:12;;;;;;;1.60;0.98;;;22.10;99.90;;;;;;5058198;28;20029;-75
2023/06/20 07:07:37;;;;;;;0.17;0.17;;;22.10;99.90;;;;;;5059881;28;20036;-82
2023/06/20 07:10:04;;;;;;;0.93;0.93;;;22.30;99.90;;;;;;5041416;28;20020;-85
2023/06/20 07:12:30;;;;;;;0.20;0.20;;;22.40;99.90;;;;;;5059832;28;20237;-75
2023/06/20 07:14:56;;;;;;;3.00;2.45;;;22.50;99.90;;;;;;5037484;28;20028;-75
2023/06/20 07:17:25;;;;;;;0.20;0.20;;;22.60;99.90;;;;;;5059040;28;20043;-87
2023/06/20 07:19:52;;;;;;;0.40;0.40;;;22.70;99.90;;;;;;5059593;28;20078;-87
2023/06/20 07:22:18;;;;;;;0.10;0.10;;;22.80;99.90;;;;;;5059782;28;20078;-80
2023/06/20 07:24:44;;;;;;;0.20;0.20;;;22.90;99.90;;;;;;5060717;28;20028;-83
2023/06/20 07:27:09;;;;;;;0.35;0.35;;;23.00;99.90;;;;;;5060132;28;20640;-82
2023/06/20 07:29:36;;;;;;;0.25;0.25;;;23.10;99.90;;;;;;5059640;28;20606;-83
2023/06/20 07:32:02;;;;;;;0.10;0.10;;;23.30;99.90;;;;;;5060127;28;20376;-82
2023/06/20 07:34:28;;;;;;;0.10;0.10;;;23.30;99.90;;;;;;5059448;28;20026;-82
2023/06/20 07:36:54;;;;;;;0.75;0.75;;;23.50;99.90;;;;;;5042444;28;20560;-86
2023/06/20 07:39:20;;;;;;;0.20;0.20;;;23.60;99.90;;;;;;5040551;28;20029;-77
2023/06/20 07:41:46;;;;;;;0.47;0.47;;;23.70;99.90;;;;;;5040711;28;20024;-77
2023/06/20 07:44:11;;;;;;;0.73;0.63;;;23.90;99.90;;;;;;5058727;28;20028;-78
2023/06/20 07:46:40;;;;;;;0.10;0.10;;;24.00;99.90;;;;;;5058386;28;20044;-80
2023/06/20 07:49:06;;;;;;;0.10;0.10;;;24.10;99.90;;;;;;5058848;28;20021;-76
2023/06/20 07:51:33;;;;;;;0.10;0.10;;;24.30;99.90;;;;;;5058416;28;20074;-77
2023/06/20 07:54:02;;;;;;;0.95;0.63;;;24.40;99.90;;;;;;5041117;28;20119;-84
2023/06/20 07:56:27;;;;;;;0.32;0.32;;;24.40;99.90;;;;;;5059378;28;20020;-74
2023/06/20 07:58:53;;;;;;;7.13;4.82;;;24.50;99.90;;;;;;5059262;28;20062;-86
2023/06/20 08:01:19;;;;;;;0.10;0.10;;;24.60;99.90;;;;;;5060423;28;20593;-75
2023/06/20 08:03:45;;;;;;;0.20;0.20;;;25.20;99.90;;;;;;5060021;28;20047;-76
2023/06/20 08:06:11;;;;;;;0.20;0.20;;;24.50;99.90;;;;;;5059834;28;20020;-77
2023/06/20 08:08:37;;;;;;;0.28;0.28;;;24.60;99.90;;;;;;5060556;28;20020;-83
2023/06/20 08:11:03;;;;;;;0.10;0.10;;;24.90;99.90;;;;;;5059065;28;20498;-76
2023/06/20 08:13:30;;;;;;;1.08;0.85;;;25.00;99.90;;;;;;5060775;28;20059;-77
2023/06/20 08:15:56;;;;;;;2.15;2.05;;;25.20;99.90;;;;;;5041833;28;20053;-80
2023/06/20 08:18:22;;;;;;;0.22;0.22;;;25.40;99.90;;;;;;5058475;28;20107;-74
2023/06/20 08:20:48;;;;;;;0.10;0.10;;;25.60;99.90;;;;;;5058407;28;20013;-83
2023/06/20 08:23:27;;;;;;;0.35;0.35;;;25.50;99.90;;;;;;5040254;28;20728;-77
2023/06/20 08:25:54;;;;;;;0.50;0.50;;;25.70;99.90;;;;;;5040725;28;20017;-77
2023/06/20 08:28:24;;;;;;;0.10;0.10;;;25.70;99.90;;;;;;5061543;28;20037;-87
2023/06/20 08:30:52;;;;;;;0.98;0.73;;;26.00;99.90;;;;;;5046618;28;20024;-82
2023/06/20 08:33:21;;;;;;;0.90;0.75;;;26.20;99.90;;;;;;5048087;28;20104;-81
2023/06/20 08:35:47;;;;;;;2.28;1.40;;;26.20;99.90;;;;;;5051012;28;20021;-87
2023/06/20 08:38:13;;;;;;;0.10;0.10;;;26.20;99.90;;;;;;5056861;28;20111;-82
2023/06/20 08:40:39;;;;;;;0.73;0.52;;;26.20;99.90;;;;;;5050832;28;20028;-86
2023/06/20 08:43:06;;;;;;;0.98;0.98;;;23.80;99.90;;;;;;5047291;28;20174;-81
2023/06/20 08:45:32;;;;;;;0.10;0.10;;;26.50;99.90;;;;;;5054426;28;20142;-79
2023/06/20 08:47:58;;;;;;;0.30;0.30;;;26.80;99.90;;;;;;5052388;28;20033;-81
2023/06/20 08:50:28;;;;;;;1.17;1.08;;;26.80;99.90;;;;;;5054581;28;20021;-80
2023/06/20 08:52:59;;;;;;;0.28;0.28;;;26.90;99.90;;;;;;5063783;28;20116;-78
2023/06/20 08:55:26;;;;;;;0.20;0.20;;;26.80;99.90;;;;;;5045986;28;20340;-86
2023/06/20 08:57:52;;;;;;;0.80;0.80;;;28.80;99.90;;;;;;5045443;28;20040;-80
2023/06/20 09:00:22;;;;;;;0.10;0.10;;;27.00;99.90;;;;;;5043970;28;20312;-81
2023/06/20 09:02:51;;;;;;;0.20;0.20;;;27.20;99.90;;;;;;5044236;28;20056;-82
2023/06/20 09:05:18;;;;;;;1.75;1.65;;;27.10;99.90;;;;;;5042898;28;20029;-77
2023/06/20 09:07:44;;;;;;;0.88;0.88;;;27.20;99.90;;;;;;5042284;28;20336;-77
2023/06/20 09:10:14;;;;;;;13.65;1.75;;;27.10;99.90;;;;;;5043115;28;20039;-84
2023/06/20 09:12:46;;;;;;;0.10;0.10;;;27.20;99.90;;;;;;5062553;28;20029;-83
2023/06/20 09:15:17;;;;;;;0.35;0.35;;;27.60;99.90;;;;;;5043173;28;20024;-76
2023/06/20 09:17:44;;;;;;;0.10;0.10;;;27.60;99.90;;;;;;5042896;28;20028;-77
2023/06/20 09:20:14;;;;;;;1.45;0.55;;;27.90;99.90;;;;;;5042989;28;20021;-76
2023/06/20 09:22:41;;;;;;;1.35;0.85;;;27.50;99.90;;;;;;5042554;28;20252;-76
2023/06/20 09:25:08;;;;;;;0.60;0.60;;;27.90;99.90;;;;;;5044990;28;20225;-80
2023/06/20 09:27:40;;;;;;;0.57;0.57;;;28.00;99.90;;;;;;5042549;28;20247;-79
2023/06/20 09:30:06;;;;;;;0.10;0.10;;;26.90;99.50;;;;;;5043122;28;20051;-80
2023/06/20 09:32:34;;;;;;;0.60;0.30;;;24.80;98.80;;;;;;5046865;28;20169;-90
2023/06/20 09:35:03;;;;;;;0.10;0.10;;;28.10;99.70;;;;;;5047973;28;20058;-82
2023/06/20 09:37:49;;;;;;;0.10;0.10;;;28.50;99.00;;;;;;5044187;28;20170;-78
2023/06/20 09:40:17;;;;;;;0.15;0.15;;;29.10;98.50;;;;;;5061033;28;20202;-76
2023/06/20 09:42:45;;;;;;;0.40;0.40;;;28.60;98.60;;;;;;5042170;28;20245;-94
2023/06/20 09:45:13;;;;;;;0.10;0.10;;;28.80;97.70;;;;;;5061138;28;20332;-80
2023/06/20 09:47:41;;;;;;;1.02;1.02;;;28.90;98.50;;;;;;5027493;28;20309;-87
2023/06/20 09:50:19;;;;;;;0.20;0.20;;;29.00;97.20;;;;;;5046229;28;20083;-84
2023/06/20 09:53:12;;;;;;;0.20;0.20;;;29.10;96.20;;;;;;5045076;28;20278;-81
2023/06/20 09:55:38;;;;;;;0.10;0.10;;;29.30;95.30;;;;;;5041860;28;20017;-78
2023/06/20 09:58:07;;;;;;;0.00;0.00;;;29.30;94.90;;;;;;5042605;28;20032;-80
2023/06/20 10:00:35;;;;;;;0.28;0.28;;;29.60;94.10;;;;;;5060290;28;20017;-81
2023/06/20 10:03:06;;;;;;;0.45;0.45;;;29.30;93.90;;;;;;5060756;28;20113;-78
2023/06/20 10:05:33;;;;;;;0.70;0.70;;;29.40;94.00;;;;;;5042185;28;20029;-78
2023/06/20 10:08:00;;;;;;;0.20;0.20;;;29.50;93.70;;;;;;5042189;28;20024;-77
2023/06/20 10:10:26;;;;;;;0.35;0.20;;;29.80;93.30;;;;;;5061193;28;20661;-89
2023/06/20 10:12:52;;;;;;;0.40;0.40;;;29.80;92.50;;;;;;5042007;28;20059;-78
2023/06/20 10:15:19;;;;;;;0.10;0.10;;;30.70;93.30;;;;;;5060374;28;20059;-81
2023/06/20 10:17:46;;;;;;;0.10;0.10;;;30.20;92.10;;;;;;5042288;28;20017;-85
2023/06/20 10:20:26;;;;;;;0.57;0.57;;;29.70;93.00;;;;;;5043782;28;20073;-78
2023/06/20 10:23:00;;;;;;;0.63;0.50;;;29.80;92.20;;;;;;5043998;28;20036;-77
2023/06/20 10:25:27;;;;;;;0.20;0.20;;;30.10;91.40;;;;;;5041677;28;20130;-79
2023/06/20 10:28:01;;;;;;;1.08;0.82;;;30.00;90.40;;;;;;5041711;28;20047;-82
2023/06/20 10:30:46;;;;;;;0.30;0.30;;;30.10;90.90;;;;;;5041922;28;20032;-80
2023/06/20 10:33:13;;;;;;;0.17;0.17;;;30.20;90.80;;;;;;5041571;28;20107;-80
2023/06/20 10:36:06;;;;;;;1.08;0.30;;;30.40;90.40;;;;;;5041437;28;20020;-81
2023/06/20 10:38:37;;;;;;;0.40;0.40;;;31.10;89.60;;;;;;5041077;28;20078;-86
2023/06/20 10:41:21;;;;;;;0.38;0.13;;;31.70;90.20;;;;;;5059031;28;20016;-77
2023/06/20 10:43:49;;;;;;;0.30;0.30;;;30.90;87.30;;;;;;5042591;28;20051;-79
2023/06/20 10:46:16;;;;;;;0.10;0.10;;;30.40;87.10;;;;;;5041408;28;20079;-78
2023/06/20 10:48:42;;;;;;;0.43;0.30;;;30.70;85.60;;;;;;5042264;28;20028;-90
2023/06/20 10:51:09;;;;;;;0.20;0.20;;;30.80;85.30;;;;;;5059889;28;20434;-86
2023/06/20 10:53:35;;;;;;;0.98;0.60;;;31.10;85.70;;;;;;5040797;28;20020;-82
2023/06/20 10:56:01;;;;;;;0.40;0.40;;;31.20;85.70;;;;;;5041197;28;20023;-78
2023/06/20 10:58:27;;;;;;;1.38;1.00;;;31.60;84.60;;;;;;5040622;28;20321;-80
2023/06/20 11:00:54;;;;;;;0.55;0.52;;;29.50;80.70;;;;;;5040758;28;20237;-78
2023/06/20 11:03:22;;;;;;;0.50;0.50;;;31.80;82.10;;;;;;5040329;28;20395;-79
2023/06/20 11:05:49;;;;;;;0.75;0.75;;;31.90;81.10;;;;;;5041984;28;20742;-76
2023/06/20 11:08:26;;;;;;;0.22;0.22;;;32.20;81.40;;;;;;5043622;28;20024;-80
2023/06/20 11:10:54;;;;;;;2.55;1.20;;;32.60;81.10;;;;;;5061352;28;20127;-91
2023/06/20 11:13:21;;;;;;;1.17;0.52;;;32.60;81.10;;;;;;5044648;28;20071;-82
2023/06/20 11:15:47;;;;;;;2.00;1.85;;;32.50;79.90;;;;;;5044557;28;20028;-80
2023/06/20 11:18:13;;;;;;;2.15;1.80;;;32.50;79.10;;;;;;5044581;28;20028;-79
2023/06/20 11:20:41;;;;;;;0.80;0.75;;;32.60;79.90;;;;;;5045178;28;20024;-81
2023/06/20 11:23:08;;;;;;;0.13;0.13;;;32.90;77.90;;;;;;5043906;28;20629;-84
2023/06/20 11:25:36;;;;;;;0.38;0.38;;;33.30;77.60;;;;;;5043318;28;20017;-86
2023/06/20 11:28:14;;;;;;;1.40;0.93;;;33.40;76.30;;;;;;5044701;28;20021;-77
2023/06/20 11:30:41;;;;;;;2.38;2.28;;;33.00;74.80;;;;;;5061985;28;20024;-78
2023/06/20 11:33:16;;;;;;;0.68;0.68;;;33.20;74.70;;;;;;5043516;28;20044;-83
2023/06/20 11:35:54;;;;;;;0.35;0.35;;;30.20;72.40;;;;;;5044509;28;20024;-84
2023/06/20 11:38:24;;;;;;;0.40;0.35;;;33.70;72.90;;;;;;5045346;28;20024;-77
2023/06/20 11:41:04;;;;;;;0.25;0.25;;;34.10;73.80;;;;;;5062477;28;20020;-76
2023/06/20 11:43:37;;;;;;;0.85;0.57;;;34.00;73.00;;;;;;5045370;28;20071;-76
2023/06/20 11:46:04;;;;;;;0.43;0.43;;;34.60;69.70;;;;;;5043244;28;20028;-79
2023/06/20 11:48:30;;;;;;;0.40;0.40;;;35.20;69.80;;;;;;5042515;28;20365;-82
2023/06/20 11:51:00;;;;;;;1.38;0.80;;;35.70;67.90;;;;;;5043463;28;20078;-78
2023/06/20 11:53:34;;;;;;;0.88;0.75;;;36.20;66.60;;;;;;5042136;28;20024;-76
2023/06/20 11:56:06;;;;;;;1.40;0.73;;;36.20;66.20;;;;;;5043406;28;20017;-86
2023/06/20 11:58:41;;;;;;;0.75;0.55;;;35.70;64.90;;;;;;5042478;28;20074;-81
2023/06/20 12:01:19;;;;;;;0.73;0.45;;;36.90;64.70;;;;;;5041432;28;20028;-81
2023/06/20 12:03:46;;;;;;;0.35;0.35;;;36.70;64.00;;;;;;5046246;28;20052;-75
2023/06/20 12:06:27;;;;;;;1.45;1.25;;;38.50;64.60;;;;;;5045245;28;20012;-75
2023/06/20 12:08:57;;;;;;;1.08;0.82;;;35.80;62.70;;;;;;5045849;28;20031;-77
2023/06/20 12:11:24;;;;;;;1.08;0.88;;;36.90;62.80;;;;;;5045594;28;20016;-75
2023/06/20 12:13:53;;;;;;;0.93;0.77;;;37.00;64.10;;;;;;5044323;28;20517;-75
2023/06/20 12:16:19;;;;;;;3.35;1.00;;;37.30;62.40;;;;;;5045704;28;20417;-90
2023/06/20 12:18:47;;;;;;;0.85;0.52;;;37.60;62.00;;;;;;5065212;28;20023;-80
2023/06/20 12:21:12;;;;;;;3.40;0.73;;;37.40;62.10;;;;;;5045349;28;20024;-76
2023/06/20 12:23:38;;;;;;;2.03;1.23;;;37.60;61.80;;;;;;5045096;28;20089;-76
2023/06/20 12:26:04;;;;;;;3.08;0.60;;;38.00;62.20;;;;;;5045568;28;20021;-76
2023/06/20 12:28:31;;;;;;;0.45;0.45;;;38.50;63.20;;;;;;5045529;28;20035;-76
2023/06/20 12:30:59;;;;;;;4.85;1.42;;;38.90;61.00;;;;;;5047356;28;20561;-76
2023/06/20 12:33:25;;;;;;;0.63;0.43;;;39.40;59.40;;;;;;5046114;28;20021;-83
2023/06/20 12:35:51;;;;;;;1.67;1.15;;;39.20;59.20;;;;;;5047951;28;20017;-83
2023/06/20 12:38:17;;;;;;;0.52;0.52;;;39.50;58.90;;;;;;5054844;28;20055;-80
2023/06/20 12:40:44;;;;;;;1.00;0.90;;;39.50;59.20;;;;;;5056597;28;20025;-79
2023/06/20 12:43:10;;;;;;;2.80;1.17;;;39.50;58.00;;;;;;5054378;28;20693;-82
2023/06/20 12:45:36;;;;;;;0.63;0.47;;;39.30;58.10;;;;;;5054740;28;20583;-77
2023/06/20 12:48:03;;;;;;;0.75;0.57;;;39.50;58.80;;;;;;5053456;28;20021;-80
2023/06/20 12:50:31;;;;;;;0.93;0.75;;;39.60;58.10;;;;;;5055152;28;20069;-75
2023/06/20 12:52:57;;;;;;;1.83;1.02;;;39.50;58.00;;;;;;5053846;28;20060;-75
2023/06/20 12:55:24;;;;;;;0.30;0.30;;;39.70;57.30;;;;;;5054095;28;20103;-80